Time;durP1;ratioP1;P1;durP2;ratioP2;P2;SDS_P1;SDS_P2;PMS_P1;PMS_P2;Temp;Humidity;BMP_temperature;BMP_pressure;BME280_temperature;BME280_humidity;BME280_pressure;Samples;Min_cycle;Max_cycle;Signal;HPM_P1;HPM_P2
2022/08/15 00:02:04;;;;;;;6.32;2.60;;;24.20;90.70;;;;;;4978617;28;20057;-72
2022/08/15 00:04:30;;;;;;;3.58;2.83;;;24.20;90.80;;;;;;4975564;28;20045;-70
2022/08/15 00:06:55;;;;;;;5.38;3.13;;;24.20;90.80;;;;;;4977246;28;20559;-73
2022/08/15 00:09:23;;;;;;;3.85;2.30;;;24.20;90.70;;;;;;4977834;28;20026;-73
2022/08/15 00:11:52;;;;;;;8.70;2.90;;;24.30;90.70;;;;;;4975244;28;20090;-71
2022/08/15 00:14:23;;;;;;;5.87;2.30;;;24.30;90.80;;;;;;4977089;28;20486;-70
2022/08/15 00:16:49;;;;;;;4.60;2.83;;;24.30;90.50;;;;;;4976069;28;20039;-69
2022/08/15 00:19:25;;;;;;;3.60;2.45;;;24.30;90.50;;;;;;4977833;28;20035;-70
2022/08/15 00:21:54;;;;;;;3.30;2.22;;;24.30;90.40;;;;;;4979111;28;20059;-71
2022/08/15 00:24:25;;;;;;;5.63;2.90;;;24.30;90.60;;;;;;4976387;28;20050;-71
2022/08/15 00:26:51;;;;;;;2.67;1.75;;;24.30;90.50;;;;;;4984775;28;20054;-70
2022/08/15 00:29:20;;;;;;;4.22;2.55;;;24.30;90.70;;;;;;4977707;28;20335;-71
2022/08/15 00:31:46;;;;;;;4.75;2.50;;;24.30;90.40;;;;;;4975549;28;20030;-68
2022/08/15 00:34:15;;;;;;;3.65;2.50;;;24.30;90.30;;;;;;4977771;28;20042;-70
2022/08/15 00:36:40;;;;;;;4.68;2.42;;;24.40;90.40;;;;;;4973231;28;20038;-70
2022/08/15 00:39:07;;;;;;;5.53;2.25;;;24.40;90.20;;;;;;4985610;28;20042;-71
2022/08/15 00:41:39;;;;;;;4.05;2.60;;;24.30;90.30;;;;;;5005558;28;20053;-70
2022/08/15 00:44:10;;;;;;;4.95;2.75;;;24.30;90.40;;;;;;4977762;28;20046;-70
2022/08/15 00:46:37;;;;;;;5.15;2.42;;;24.40;90.50;;;;;;4978019;28;20145;-71
2022/08/15 00:49:03;;;;;;;3.55;2.30;;;24.30;90.50;;;;;;4975304;28;20033;-69
2022/08/15 00:51:36;;;;;;;6.30;2.63;;;24.30;90.40;;;;;;4975806;28;20538;-71
2022/08/15 00:54:14;;;;;;;6.82;2.83;;;24.40;90.20;;;;;;4972435;28;20035;-70
2022/08/15 00:56:53;;;;;;;5.07;2.45;;;24.40;90.30;;;;;;4976721;28;20034;-70
2022/08/15 00:59:23;;;;;;;4.95;3.03;;;24.40;90.50;;;;;;4975221;28;20045;-70
2022/08/15 01:01:50;;;;;;;7.07;2.53;;;24.40;90.70;;;;;;4976266;28;20494;-71
2022/08/15 01:04:17;;;;;;;3.80;2.35;;;24.30;90.60;;;;;;4975796;28;20049;-70
2022/08/15 01:06:45;;;;;;;5.10;2.17;;;24.30;90.80;;;;;;4974715;28;20125;-71
2022/08/15 01:09:12;;;;;;;11.15;2.40;;;24.30;91.00;;;;;;4974234;28;20042;-70
2022/08/15 01:12:01;;;;;;;4.65;2.20;;;24.30;91.20;;;;;;4976868;28;20569;-70
2022/08/15 01:14:29;;;;;;;4.50;2.42;;;24.20;91.30;;;;;;4976289;28;20541;-71
2022/08/15 01:16:55;;;;;;;3.13;2.13;;;24.20;91.50;;;;;;4975146;28;20403;-70
2022/08/15 01:19:34;;;;;;;3.50;2.38;;;24.20;91.60;;;;;;4976510;28;20034;-70
2022/08/15 01:22:33;;;;;;;3.40;2.15;;;24.20;91.60;;;;;;4984227;28;20491;-71
2022/08/15 01:25:16;;;;;;;5.33;2.50;;;24.10;91.80;;;;;;4980502;28;20042;-70
2022/08/15 01:28:01;;;;;;;4.22;2.65;;;24.10;91.80;;;;;;4978054;28;20487;-70
2022/08/15 01:30:33;;;;;;;4.82;2.83;;;24.10;91.90;;;;;;4976751;28;20054;-72
2022/08/15 01:32:59;;;;;;;3.33;2.53;;;24.00;92.00;;;;;;4972234;28;20399;-73
2022/08/15 01:35:27;;;;;;;4.63;2.63;;;24.00;92.20;;;;;;4976869;28;20081;-70
2022/08/15 01:37:52;;;;;;;4.68;2.58;;;24.00;92.20;;;;;;4975391;28;20062;-72
2022/08/15 01:40:39;;;;;;;6.07;3.30;;;24.00;92.30;;;;;;4976161;28;20069;-69
2022/08/15 01:43:07;;;;;;;4.68;3.08;;;24.00;92.40;;;;;;4976049;28;20529;-71
2022/08/15 01:45:35;;;;;;;5.13;3.30;;;24.00;92.50;;;;;;4977436;28;20236;-73
2022/08/15 01:48:10;;;;;;;5.78;3.13;;;23.90;92.60;;;;;;4977617;28;20030;-71
2022/08/15 01:50:42;;;;;;;7.20;3.63;;;23.90;92.60;;;;;;4973797;28;20523;-69
2022/08/15 01:53:17;;;;;;;4.50;2.97;;;23.80;92.80;;;;;;4974103;28;20113;-70
2022/08/15 01:56:08;;;;;;;6.57;3.03;;;23.80;92.90;;;;;;4972209;28;20073;-67
2022/08/15 01:58:41;;;;;;;5.38;3.38;;;23.80;92.90;;;;;;4979486;28;20026;-71
2022/08/15 02:01:10;;;;;;;6.10;3.80;;;23.80;93.10;;;;;;4976020;28;20045;-70
2022/08/15 02:03:39;;;;;;;7.30;3.50;;;23.80;93.60;;;;;;4971755;28;20615;-70
2022/08/15 02:06:14;;;;;;;7.03;4.10;;;23.70;94.10;;;;;;4977377;28;20034;-70
2022/08/15 02:08:41;;;;;;;7.43;3.30;;;23.70;94.90;;;;;;4973051;28;20039;-71
2022/08/15 02:11:12;;;;;;;8.48;3.78;;;23.60;95.40;;;;;;4976706;28;20042;-71
2022/08/15 02:13:39;;;;;;;10.95;3.67;;;23.50;95.50;;;;;;4972118;28;20071;-70
2022/08/15 02:16:05;;;;;;;6.63;3.67;;;23.40;96.30;;;;;;4980458;28;20035;-69
2022/08/15 02:18:30;;;;;;;6.20;4.00;;;23.30;96.60;;;;;;4976830;28;20038;-71
2022/08/15 02:20:59;;;;;;;7.28;3.42;;;23.30;97.00;;;;;;4981620;28;20122;-70
2022/08/15 02:23:26;;;;;;;6.15;3.63;;;23.20;97.30;;;;;;4981629;28;20030;-70
2022/08/15 02:25:54;;;;;;;6.88;3.35;;;23.20;96.50;;;;;;4982523;28;20582;-70
2022/08/15 02:28:20;;;;;;;7.10;4.28;;;23.20;96.40;;;;;;4975183;28;20034;-70
2022/08/15 02:30:46;;;;;;;6.15;3.60;;;23.20;96.80;;;;;;4975253;28;20039;-71
2022/08/15 02:33:13;;;;;;;6.07;3.80;;;23.20;97.10;;;;;;4973574;28;20536;-71
2022/08/15 02:35:39;;;;;;;8.77;3.80;;;23.20;97.10;;;;;;4972916;28;20054;-70
2022/08/15 02:38:06;;;;;;;5.00;3.35;;;23.30;96.90;;;;;;4975462;28;20066;-71
2022/08/15 02:40:33;;;;;;;5.50;3.78;;;23.30;96.80;;;;;;4973270;28;20034;-70
2022/08/15 02:43:05;;;;;;;6.45;3.40;;;23.30;96.40;;;;;;4978215;28;20042;-69
2022/08/15 02:45:38;;;;;;;6.05;3.92;;;23.30;96.50;;;;;;4980907;28;20034;-69
2022/08/15 02:48:06;;;;;;;9.90;4.43;;;23.30;96.80;;;;;;4980399;28;20035;-70
2022/08/15 02:50:33;;;;;;;8.32;4.93;;;23.20;96.80;;;;;;4980396;28;20034;-70
2022/08/15 02:53:00;;;;;;;8.65;5.03;;;23.20;96.70;;;;;;4979426;28;20042;-70
2022/08/15 02:55:26;;;;;;;9.93;5.43;;;23.20;96.40;;;;;;4976598;28;20444;-70
2022/08/15 02:57:52;;;;;;;7.47;4.85;;;23.30;96.00;;;;;;4978211;28;20047;-70
2022/08/15 03:00:18;;;;;;;7.35;4.70;;;23.30;95.90;;;;;;4976654;28;20561;-73
2022/08/15 03:02:56;;;;;;;6.80;4.88;;;23.30;95.70;;;;;;4975657;28;20070;-70
2022/08/15 03:05:24;;;;;;;8.15;4.97;;;23.30;95.60;;;;;;4977157;28;20423;-70
2022/08/15 03:07:50;;;;;;;7.00;4.38;;;23.30;95.60;;;;;;4978892;28;20038;-71
2022/08/15 03:10:16;;;;;;;9.00;4.65;;;23.30;95.50;;;;;;4977858;28;20041;-68
2022/08/15 03:12:53;;;;;;;6.95;3.97;;;23.30;95.40;;;;;;4976750;28;20514;-72
2022/08/15 03:15:25;;;;;;;6.22;4.05;;;23.30;95.20;;;;;;4977592;28;20073;-70
2022/08/15 03:17:52;;;;;;;5.65;4.03;;;23.30;94.90;;;;;;4978286;28;20089;-69
2022/08/15 03:20:19;;;;;;;7.05;4.05;;;23.40;94.70;;;;;;4980145;28;20041;-70
2022/08/15 03:22:48;;;;;;;5.45;3.50;;;23.30;94.60;;;;;;4986304;28;20507;-70
2022/08/15 03:25:15;;;;;;;5.75;3.70;;;23.30;94.60;;;;;;4980266;28;20038;-70
2022/08/15 03:27:41;;;;;;;5.63;3.53;;;23.40;94.50;;;;;;4978343;28;20039;-69
2022/08/15 03:30:09;;;;;;;7.40;4.03;;;23.40;94.40;;;;;;4977721;28;20034;-70
2022/08/15 03:32:45;;;;;;;5.05;3.40;;;23.30;94.40;;;;;;4976465;28;20038;-69
2022/08/15 03:35:12;;;;;;;6.55;3.35;;;23.30;94.50;;;;;;4976918;28;20194;-72
2022/08/15 03:37:39;;;;;;;6.65;3.50;;;23.20;94.50;;;;;;4977568;28;20031;-70
2022/08/15 03:40:06;;;;;;;5.05;2.92;;;23.20;94.60;;;;;;4978327;28;20041;-69
2022/08/15 03:42:33;;;;;;;8.43;3.10;;;23.10;94.70;;;;;;4975664;28;20042;-69
2022/08/15 03:45:02;;;;;;;6.55;3.33;;;23.10;94.80;;;;;;5011738;28;20043;-72
2022/08/15 03:47:29;;;;;;;7.70;3.75;;;23.10;95.00;;;;;;4976578;28;20031;-72
2022/08/15 03:49:55;;;;;;;7.45;2.97;;;23.00;95.10;;;;;;4976743;28;20105;-72
2022/08/15 03:52:20;;;;;;;8.52;3.10;;;23.00;95.50;;;;;;4983507;28;20034;-71
2022/08/15 03:54:46;;;;;;;7.75;3.30;;;22.90;95.60;;;;;;4980925;28;20577;-71
2022/08/15 03:57:12;;;;;;;5.78;3.60;;;22.90;95.80;;;;;;4978634;28;20558;-71
2022/08/15 03:59:38;;;;;;;4.75;3.22;;;22.80;95.70;;;;;;4977877;28;20045;-70
2022/08/15 04:02:07;;;;;;;5.00;3.42;;;22.80;95.70;;;;;;4976835;28;20042;-71
2022/08/15 04:04:33;;;;;;;5.43;2.88;;;22.80;95.50;;;;;;4977611;28;20038;-68
2022/08/15 04:06:59;;;;;;;6.22;3.08;;;22.80;95.40;;;;;;4975990;28;20043;-71
2022/08/15 04:09:24;;;;;;;5.25;3.05;;;22.80;95.40;;;;;;4978772;28;20049;-71
2022/08/15 04:11:50;;;;;;;5.85;2.65;;;22.70;95.50;;;;;;5006618;28;20053;-72
2022/08/15 04:14:16;;;;;;;8.02;3.45;;;22.70;95.20;;;;;;4977101;28;20096;-71
2022/08/15 04:16:41;;;;;;;10.18;3.40;;;22.90;94.60;;;;;;4976302;28;20088;-72
2022/08/15 04:19:07;;;;;;;5.65;2.80;;;22.80;94.60;;;;;;4976749;28;20046;-71
2022/08/15 04:21:33;;;;;;;12.23;3.38;;;22.80;94.80;;;;;;5009630;28;20038;-72
2022/08/15 04:23:59;;;;;;;5.97;3.45;;;22.80;95.00;;;;;;4984285;28;20487;-71
2022/08/15 04:26:25;;;;;;;9.18;4.13;;;22.90;95.20;;;;;;4977173;28;20038;-72
2022/08/15 04:28:50;;;;;;;6.32;3.65;;;22.80;95.30;;;;;;4978018;28;20503;-69
2022/08/15 04:31:19;;;;;;;9.07;4.50;;;22.70;95.60;;;;;;4978948;28;20066;-71
2022/08/15 04:33:45;;;;;;;12.20;3.92;;;22.70;95.70;;;;;;4975490;28;20031;-71
2022/08/15 04:36:14;;;;;;;7.57;4.05;;;22.70;95.70;;;;;;4974936;28;20057;-71
2022/08/15 04:38:42;;;;;;;6.05;3.85;;;22.70;96.10;;;;;;4982506;28;20498;-71
2022/08/15 04:41:09;;;;;;;6.40;3.85;;;22.80;96.10;;;;;;4973358;28;20550;-70
2022/08/15 04:43:38;;;;;;;7.43;3.80;;;22.70;96.20;;;;;;4977089;28;20071;-71
2022/08/15 04:46:05;;;;;;;5.95;4.10;;;22.70;96.30;;;;;;4982651;28;20034;-71
2022/08/15 04:48:31;;;;;;;8.40;3.70;;;22.70;96.50;;;;;;4980466;28;20498;-71
2022/08/15 04:50:58;;;;;;;6.53;3.70;;;22.70;96.60;;;;;;4983993;28;20046;-71
2022/08/15 04:53:29;;;;;;;9.52;3.78;;;22.60;96.40;;;;;;4982232;28;20034;-68
2022/08/15 04:55:56;;;;;;;6.38;3.67;;;22.60;96.30;;;;;;5013851;28;20059;-72
2022/08/15 04:58:23;;;;;;;5.30;3.28;;;22.50;96.30;;;;;;4982979;28;20764;-70
2022/08/15 05:01:12;;;;;;;6.32;3.95;;;22.50;96.20;;;;;;4981065;28;20863;-70
2022/08/15 05:03:38;;;;;;;6.88;3.80;;;22.50;96.20;;;;;;4976930;28;20656;-69
2022/08/15 05:06:06;;;;;;;9.63;3.83;;;22.50;96.30;;;;;;4983285;28;20037;-71
2022/08/15 05:08:34;;;;;;;11.75;3.20;;;22.50;96.30;;;;;;4981716;28;20068;-71
2022/08/15 05:11:09;;;;;;;6.85;3.42;;;22.40;96.30;;;;;;4978059;28;20079;-70
2022/08/15 05:13:37;;;;;;;6.50;2.97;;;22.50;96.30;;;;;;4982066;28;20045;-71
2022/08/15 05:16:07;;;;;;;6.30;3.78;;;22.50;96.20;;;;;;4983336;28;20038;-70
2022/08/15 05:18:35;;;;;;;6.32;3.28;;;22.40;96.00;;;;;;4980123;28;20152;-71
2022/08/15 05:21:00;;;;;;;6.03;2.60;;;22.50;96.00;;;;;;4981267;28;20030;-71
2022/08/15 05:23:27;;;;;;;4.65;2.70;;;22.40;96.00;;;;;;4984803;28;20096;-71
2022/08/15 05:25:56;;;;;;;4.70;3.15;;;22.40;96.00;;;;;;4981300;28;20458;-69
2022/08/15 05:28:23;;;;;;;7.75;2.80;;;22.50;96.20;;;;;;4984642;28;20590;-71
2022/08/15 05:30:50;;;;;;;6.75;3.08;;;22.50;96.30;;;;;;4979323;28;20117;-70
2022/08/15 05:33:19;;;;;;;5.07;3.42;;;22.50;96.20;;;;;;4981217;28;20062;-71
2022/08/15 05:35:49;;;;;;;6.05;3.72;;;22.60;96.20;;;;;;4980592;28;20071;-71
2022/08/15 05:38:23;;;;;;;;;;;22.60;96.10;;;;;;4982689;28;20057;-71
2022/08/15 05:41:01;;;;;;;6.70;3.78;;;22.60;96.10;;;;;;4979375;28;19988;-70
2022/08/15 05:43:52;;;;;;;7.18;3.28;;;22.70;96.20;;;;;;4980820;28;20572;-71
2022/08/15 05:46:21;;;;;;;8.93;3.20;;;22.70;96.20;;;;;;5013156;28;20041;-71
2022/08/15 05:49:05;;;;;;;4.83;3.07;;;22.70;96.20;;;;;;4979838;28;20129;-71
2022/08/15 05:52:04;;;;;;;9.43;3.75;;;22.70;96.00;;;;;;4979990;28;20658;-69
2022/08/15 05:54:54;;;;;;;5.20;3.20;;;22.80;95.90;;;;;;4979561;28;20041;-71
2022/08/15 05:57:28;;;;;;;5.13;3.00;;;22.90;95.70;;;;;;4960519;28;20423;-70
2022/08/15 05:59:59;;;;;;;5.35;3.40;;;23.00;95.70;;;;;;4959712;28;20055;-70
2022/08/15 06:02:41;;;;;;;11.18;2.95;;;23.10;95.80;;;;;;4961008;28;20038;-71
2022/08/15 06:05:20;;;;;;;6.57;3.17;;;23.30;95.70;;;;;;4961701;28;20023;-71
2022/08/15 06:07:49;;;;;;;5.57;2.45;;;23.50;95.20;;;;;;4960603;28;20031;-74
2022/08/15 06:10:36;;;;;;;6.23;2.63;;;23.60;95.00;;;;;;4960644;28;20146;-70
2022/08/15 06:13:29;;;;;;;5.38;2.53;;;23.80;94.50;;;;;;4958197;28;20034;-70
2022/08/15 06:16:17;;;;;;;4.43;2.00;;;23.90;94.00;;;;;;4959370;28;20099;-70
2022/08/15 06:18:44;;;;;;;5.68;2.22;;;23.90;94.10;;;;;;4964115;28;20821;-70
2022/08/15 06:21:31;;;;;;;5.18;2.10;;;24.00;94.10;;;;;;4964704;28;20038;-70
2022/08/15 06:24:31;;;;;;;4.75;2.13;;;24.10;94.30;;;;;;4961143;28;20047;-71
2022/08/15 06:27:10;;;;;;;5.85;2.30;;;24.30;93.70;;;;;;4964503;28;20089;-71
2022/08/15 06:30:04;;;;;;;4.88;2.60;;;24.40;93.00;;;;;;4966084;28;20050;-69
2022/08/15 06:32:39;;;;;;;3.67;2.05;;;24.60;93.50;;;;;;4963711;28;20097;-71
2022/08/15 06:35:22;;;;;;;4.35;2.00;;;24.80;93.20;;;;;;4964211;28;20666;-71
2022/08/15 06:38:07;;;;;;;5.03;1.50;;;25.20;92.30;;;;;;4973418;28;20076;-71
2022/08/15 06:40:36;;;;;;;3.60;1.50;;;25.60;91.60;;;;;;4967506;28;20137;-70
2022/08/15 06:43:02;;;;;;;3.77;0.93;;;26.40;89.90;;;;;;4964636;28;20039;-71
2022/08/15 06:45:36;;;;;;;5.03;1.20;;;27.00;86.60;;;;;;4964752;28;20049;-71
2022/08/15 06:48:10;;;;;;;3.97;1.13;;;27.60;85.60;;;;;;4964156;28;20031;-71
2022/08/15 06:50:44;;;;;;;1.40;1.10;;;28.30;84.60;;;;;;4961815;28;20570;-71
2022/08/15 06:53:18;;;;;;;3.05;1.00;;;29.30;80.40;;;;;;4963251;28;20034;-69
2022/08/15 06:55:56;;;;;;;3.40;1.33;;;30.00;80.30;;;;;;4962232;28;20244;-70
2022/08/15 06:58:42;;;;;;;2.47;1.42;;;30.50;77.60;;;;;;4967371;28;20043;-71
2022/08/15 07:01:36;;;;;;;4.65;2.13;;;31.10;76.40;;;;;;4963697;28;20428;-71
2022/08/15 07:04:21;;;;;;;3.20;1.50;;;31.40;76.20;;;;;;4963793;28;20120;-72
2022/08/15 07:07:10;;;;;;;3.53;1.42;;;31.70;76.70;;;;;;4963465;28;20046;-71
2022/08/15 07:09:35;;;;;;;;;;;31.80;76.50;;;;;;4960532;28;20598;-72
2022/08/15 07:12:31;;;;;;;2.63;1.55;;;32.00;75.50;;;;;;4963555;28;19976;-71
2022/08/15 07:15:04;;;;;;;2.10;1.13;;;32.40;74.40;;;;;;4980503;28;20153;-72
2022/08/15 07:17:47;;;;;;;4.38;1.40;;;32.50;75.30;;;;;;4982284;28;20042;-72
2022/08/15 07:20:13;;;;;;;2.58;1.80;;;32.70;73.70;;;;;;5012521;28;20164;-72
2022/08/15 07:22:39;;;;;;;2.95;1.40;;;32.50;72.60;;;;;;4984012;28;20058;-72
2022/08/15 07:25:10;;;;;;;11.13;1.33;;;32.10;72.40;;;;;;4984037;28;20034;-72
2022/08/15 07:27:36;;;;;;;5.45;1.63;;;31.40;71.90;;;;;;5008991;28;20031;-72
2022/08/15 07:30:13;;;;;;;4.18;1.25;;;30.40;73.30;;;;;;4983170;28;20045;-71
2022/08/15 07:32:55;;;;;;;7.38;1.17;;;29.30;75.60;;;;;;4981087;28;20101;-69
2022/08/15 07:35:27;;;;;;;3.85;1.15;;;28.40;77.30;;;;;;5013814;28;20170;-72
2022/08/15 07:38:06;;;;;;;4.00;0.95;;;27.70;79.40;;;;;;4983345;28;20475;-72
2022/08/15 07:40:38;;;;;;;5.53;1.23;;;27.10;79.90;;;;;;4974687;28;20033;-70
2022/08/15 07:43:30;;;;;;;3.20;1.17;;;26.70;81.30;;;;;;4984352;28;20136;-72
2022/08/15 07:46:07;;;;;;;1.52;0.75;;;26.30;82.40;;;;;;4983871;28;20776;-70
2022/08/15 07:48:34;;;;;;;3.03;1.05;;;26.10;83.90;;;;;;4982595;28;20038;-71
2022/08/15 07:51:14;;;;;;;2.33;0.90;;;26.00;84.30;;;;;;4979732;28;20057;-72
2022/08/15 07:53:59;;;;;;;3.83;0.90;;;26.20;84.30;;;;;;5012620;28;20034;-70
2022/08/15 07:56:26;;;;;;;4.53;1.40;;;26.30;85.00;;;;;;4984764;28;20069;-71
2022/08/15 07:59:05;;;;;;;4.15;1.40;;;26.40;84.70;;;;;;4981739;28;20117;-71
2022/08/15 08:01:31;;;;;;;3.08;0.90;;;26.50;83.80;;;;;;4982053;28;20042;-71
2022/08/15 08:04:29;;;;;;;1.15;0.63;;;26.50;84.10;;;;;;4983878;28;20048;-70
2022/08/15 08:07:11;;;;;;;2.67;1.10;;;26.50;84.30;;;;;;4976602;28;20272;-71
2022/08/15 08:09:45;;;;;;;2.03;0.95;;;26.50;84.20;;;;;;5015009;28;20124;-71
2022/08/15 08:12:23;;;;;;;4.28;1.25;;;26.60;84.30;;;;;;4979135;28;20432;-70
2022/08/15 08:15:22;;;;;;;2.92;0.93;;;26.70;83.80;;;;;;4981938;28;20042;-71
2022/08/15 08:18:29;;;;;;;2.10;1.10;;;26.80;83.70;;;;;;4982273;28;20061;-72
2022/08/15 08:21:03;;;;;;;4.10;1.45;;;26.80;82.40;;;;;;4969126;28;20384;-70
2022/08/15 08:23:34;;;;;;;2.40;1.17;;;26.70;82.90;;;;;;4979101;28;20521;-69
2022/08/15 08:26:18;;;;;;;4.32;1.08;;;26.80;84.10;;;;;;4983166;28;20043;-70
2022/08/15 08:28:58;;;;;;;2.92;1.10;;;27.00;83.60;;;;;;4982624;28;20196;-69
2022/08/15 08:31:42;;;;;;;1.95;1.00;;;26.90;83.20;;;;;;4980155;28;20037;-71
2022/08/15 08:34:32;;;;;;;3.25;1.05;;;26.90;83.00;;;;;;5010593;28;20089;-71
2022/08/15 08:37:20;;;;;;;2.65;0.95;;;27.00;83.30;;;;;;4982426;28;20138;-69
2022/08/15 08:41:24;;;;;;;3.75;1.30;;;27.00;83.60;;;;;;4978640;28;20046;-71
2022/08/15 08:42:56;;;;;;;4.57;1.48;;;27.10;83.70;;;;;;4976726;28;20038;-71
2022/08/15 08:45:34;;;;;;;4.15;1.48;;;27.10;84.40;;;;;;4981039;28;20042;-72
2022/08/15 08:48:31;;;;;;;1.67;1.05;;;27.00;85.40;;;;;;4981520;28;20119;-71
2022/08/15 08:51:10;;;;;;;3.78;1.33;;;27.10;86.10;;;;;;4980278;28;20053;-71
2022/08/15 08:53:38;;;;;;;3.63;1.75;;;27.30;85.90;;;;;;4981087;28;20845;-72
2022/08/15 08:56:14;;;;;;;6.70;3.28;;;27.40;86.50;;;;;;4961558;28;20795;-72
2022/08/15 08:58:50;;;;;;;5.07;1.48;;;27.40;86.90;;;;;;4961015;28;20546;-70
2022/08/15 09:01:22;;;;;;;2.25;1.23;;;27.40;85.30;;;;;;4960812;28;20043;-72
2022/08/15 09:04:06;;;;;;;5.53;1.20;;;27.30;84.00;;;;;;4960881;28;20042;-71
2022/08/15 09:06:37;;;;;;;6.20;1.30;;;27.10;83.20;;;;;;4960715;28;20043;-71
2022/08/15 09:09:06;;;;;;;3.47;1.23;;;26.90;83.80;;;;;;4961284;28;20034;-71
2022/08/15 09:11:49;;;;;;;3.47;1.55;;;26.90;84.50;;;;;;4960841;28;20088;-71
2022/08/15 09:14:24;;;;;;;2.40;1.52;;;26.80;84.70;;;;;;4960881;28;20034;-71
2022/08/15 09:16:54;;;;;;;2.53;1.67;;;26.80;84.80;;;;;;4960473;28;20533;-70
2022/08/15 09:19:32;;;;;;;5.13;2.25;;;26.80;85.50;;;;;;4955886;28;20125;-70
2022/08/15 09:21:58;;;;;;;5.28;2.30;;;26.90;85.70;;;;;;4959077;28;20046;-71
2022/08/15 09:24:24;;;;;;;2.33;1.52;;;26.80;86.20;;;;;;4961356;28;20027;-74
2022/08/15 09:26:49;;;;;;;4.32;2.15;;;26.90;86.70;;;;;;4960795;28;20062;-71
2022/08/15 09:29:32;;;;;;;6.43;2.05;;;26.90;86.80;;;;;;4960982;28;20067;-71
2022/08/15 09:32:21;;;;;;;5.13;2.50;;;26.80;87.40;;;;;;4960054;28;20499;-70
2022/08/15 09:35:16;;;;;;;6.55;2.55;;;26.90;88.00;;;;;;4958042;28;20202;-71
2022/08/15 09:38:09;;;;;;;4.95;2.50;;;26.90;86.70;;;;;;4962921;28;20038;-71
2022/08/15 09:40:34;;;;;;;4.80;2.45;;;26.90;88.00;;;;;;4959203;28;20373;-71
2022/08/15 09:43:06;;;;;;;4.47;3.03;;;26.90;87.80;;;;;;4960038;28;20046;-71
2022/08/15 09:45:40;;;;;;;6.63;2.88;;;26.90;88.20;;;;;;4958502;28;20039;-69
2022/08/15 09:48:30;;;;;;;5.57;3.05;;;26.80;89.50;;;;;;4959617;28;20491;-73
2022/08/15 09:51:35;;;;;;;6.72;2.95;;;26.80;89.70;;;;;;4961875;28;20093;-71
2022/08/15 09:54:05;;;;;;;7.18;3.30;;;26.80;90.00;;;;;;4953818;28;20066;-70
2022/08/15 09:56:34;;;;;;;5.30;3.00;;;26.90;90.30;;;;;;4965493;28;20070;-69
2022/08/15 09:59:05;;;;;;;6.15;3.35;;;26.90;90.00;;;;;;4963609;28;20046;-72
2022/08/15 10:01:51;;;;;;;9.75;3.15;;;26.80;90.20;;;;;;4964556;28;20039;-71
2022/08/15 10:04:20;;;;;;;6.63;2.72;;;26.70;90.30;;;;;;4963608;28;20051;-69
2022/08/15 10:07:04;;;;;;;7.10;3.00;;;26.60;90.70;;;;;;4963971;28;20791;-71
2022/08/15 10:09:32;;;;;;;6.05;3.10;;;26.50;90.30;;;;;;4965435;28;20093;-69
2022/08/15 10:12:07;;;;;;;5.93;3.60;;;26.40;90.50;;;;;;4962870;28;20053;-71
2022/08/15 10:15:25;;;;;;;8.27;3.53;;;26.40;90.80;;;;;;4960271;28;20045;-71
2022/08/15 10:17:52;;;;;;;5.95;3.15;;;26.40;91.00;;;;;;4979838;28;20600;-71
2022/08/15 10:20:40;;;;;;;10.02;3.42;;;26.60;90.40;;;;;;4984646;28;20121;-71
2022/08/15 10:23:10;;;;;;;8.70;3.58;;;26.60;90.40;;;;;;4963371;28;20046;-69
2022/08/15 10:25:39;;;;;;;11.65;3.60;;;26.50;90.20;;;;;;4964986;28;20823;-71
2022/08/15 10:28:11;;;;;;;6.10;3.25;;;26.40;90.20;;;;;;4965425;28;20718;-72
2022/08/15 10:30:44;;;;;;;10.63;3.65;;;26.40;90.30;;;;;;4961373;28;20081;-70
2022/08/15 10:33:30;;;;;;;5.97;3.70;;;26.50;90.40;;;;;;4963541;28;20045;-70
2022/08/15 10:36:18;;;;;;;7.45;4.30;;;26.40;90.40;;;;;;4963767;28;20046;-72
2022/08/15 10:39:36;;;;;;;6.28;3.92;;;26.40;90.70;;;;;;4961063;28;20583;-70
2022/08/15 10:42:36;;;;;;;7.85;4.68;;;26.40;91.00;;;;;;4940903;28;20043;-70
2022/08/15 10:45:41;;;;;;;7.63;4.65;;;26.50;90.80;;;;;;4977988;28;20038;-71
2022/08/15 10:48:10;;;;;;;7.22;4.10;;;26.50;90.70;;;;;;4958484;28;20035;-71
2022/08/15 10:50:51;;;;;;;7.05;4.43;;;26.40;90.90;;;;;;4962535;28;20068;-70
2022/08/15 10:53:34;;;;;;;6.22;4.10;;;26.40;91.00;;;;;;4964710;28;20598;-71
2022/08/15 10:56:20;;;;;;;6.40;3.80;;;26.40;91.20;;;;;;4959708;28;20714;-73
2022/08/15 10:58:47;;;;;;;6.35;3.70;;;26.40;91.00;;;;;;4960409;28;20042;-71
2022/08/15 11:01:21;;;;;;;8.98;4.15;;;26.30;91.00;;;;;;4964939;28;20039;-71
2022/08/15 11:03:58;;;;;;;6.25;3.53;;;26.20;91.30;;;;;;4963450;28;20046;-71
2022/08/15 11:06:24;;;;;;;7.25;5.22;;;26.30;92.10;;;;;;4963819;28;20048;-71
2022/08/15 11:09:03;;;;;;;6.90;4.45;;;26.30;92.00;;;;;;4961448;28;20105;-71
2022/08/15 11:11:32;;;;;;;8.80;4.15;;;26.30;92.00;;;;;;4965499;28;20035;-72
2022/08/15 11:14:08;;;;;;;9.40;3.97;;;26.40;92.10;;;;;;4964212;28;20041;-71
2022/08/15 11:16:40;;;;;;;9.73;4.35;;;26.40;91.60;;;;;;4963582;28;20117;-72
2022/08/15 11:19:37;;;;;;;13.30;4.15;;;26.40;91.20;;;;;;4963826;28;20117;-71
2022/08/15 11:22:05;;;;;;;7.35;2.97;;;26.40;91.60;;;;;;4960784;28;20042;-71
2022/08/15 11:24:35;;;;;;;4.50;2.75;;;26.40;91.60;;;;;;4963970;28;20058;-72
2022/08/15 11:27:23;;;;;;;6.25;3.03;;;26.40;89.90;;;;;;4967859;28;20046;-72
2022/08/15 11:29:51;;;;;;;3.97;2.60;;;26.40;90.40;;;;;;4963236;28;20125;-72
2022/08/15 11:32:32;;;;;;;4.85;3.03;;;26.40;89.90;;;;;;4963077;28;20038;-72
2022/08/15 11:35:04;;;;;;;5.13;2.72;;;26.50;90.20;;;;;;4960709;28;20073;-72
2022/08/15 11:37:37;;;;;;;11.98;3.50;;;26.60;90.10;;;;;;4965348;28;20510;-72
2022/08/15 11:40:27;;;;;;;7.75;2.70;;;26.80;90.10;;;;;;4964567;28;20047;-72
2022/08/15 11:42:54;;;;;;;5.68;2.50;;;26.90;89.80;;;;;;4962361;28;20958;-71
2022/08/15 11:45:24;;;;;;;2.63;1.85;;;26.90;89.00;;;;;;4965614;28;20023;-70
2022/08/15 11:47:53;;;;;;;8.57;2.45;;;27.00;88.60;;;;;;4961909;28;20027;-71
2022/08/15 11:50:33;;;;;;;7.32;2.88;;;26.90;88.50;;;;;;4963855;28;20034;-74
2022/08/15 11:53:01;;;;;;;;;;;27.00;88.80;;;;;;4960211;28;20118;-72
2022/08/15 11:55:27;;;;;;;7.90;3.00;;;27.00;88.80;;;;;;4967039;28;19922;-72
2022/08/15 11:58:19;;;;;;;6.45;3.03;;;27.00;88.50;;;;;;4963491;28;20630;-72
2022/08/15 12:00:57;;;;;;;6.07;3.13;;;27.00;88.20;;;;;;4959527;28;20035;-71
2022/08/15 12:03:22;;;;;;;9.95;2.85;;;26.90;88.40;;;;;;4965833;28;20419;-72
2022/08/15 12:05:51;;;;;;;4.10;2.35;;;26.90;89.30;;;;;;4961115;28;20035;-72
2022/08/15 12:08:29;;;;;;;5.80;2.70;;;26.90;88.20;;;;;;4963501;28;20578;-71
2022/08/15 12:11:22;;;;;;;9.57;3.67;;;26.90;88.10;;;;;;4962726;28;20035;-71
2022/08/15 12:13:57;;;;;;;5.25;2.58;;;27.00;88.90;;;;;;4961394;28;20887;-71
2022/08/15 12:16:40;;;;;;;6.55;2.20;;;27.10;88.60;;;;;;4964783;28;20043;-71
2022/08/15 12:19:22;;;;;;;6.95;2.30;;;27.10;89.00;;;;;;5005138;28;20074;-72
2022/08/15 12:21:49;;;;;;;6.60;2.65;;;27.10;88.90;;;;;;4982451;28;20049;-69
2022/08/15 12:24:26;;;;;;;4.72;2.35;;;27.20;87.70;;;;;;4981120;28;20459;-72
2022/08/15 12:26:52;;;;;;;5.13;2.05;;;27.20;87.90;;;;;;4982472;28;20038;-72
2022/08/15 12:29:20;;;;;;;5.32;2.05;;;27.20;88.20;;;;;;4984052;28;20103;-71
2022/08/15 12:31:47;;;;;;;7.63;2.95;;;27.20;88.20;;;;;;4983928;28;20038;-71
2022/08/15 12:34:20;;;;;;;6.10;2.05;;;27.20;87.90;;;;;;4981634;28;20038;-71
2022/08/15 12:36:46;;;;;;;5.95;2.63;;;27.10;88.00;;;;;;4979428;28;20062;-72
2022/08/15 12:39:14;;;;;;;6.65;2.50;;;27.10;88.10;;;;;;4983041;28;20061;-72
2022/08/15 12:41:42;;;;;;;5.63;3.05;;;27.20;88.40;;;;;;4980956;28;20031;-70
2022/08/15 12:44:24;;;;;;;4.63;2.60;;;27.20;88.20;;;;;;4982536;28;20050;-72
2022/08/15 12:46:50;;;;;;;9.00;2.95;;;27.30;88.00;;;;;;5014916;28;20034;-71
2022/08/15 12:49:16;;;;;;;7.47;2.92;;;27.40;88.20;;;;;;4983008;28;20575;-71
2022/08/15 12:51:42;;;;;;;5.65;2.92;;;27.40;87.50;;;;;;4979470;28;20045;-72
2022/08/15 12:54:08;;;;;;;4.72;2.65;;;27.50;87.40;;;;;;4981952;28;20060;-72
2022/08/15 12:56:34;;;;;;;5.50;2.88;;;27.40;87.60;;;;;;4983321;28;20042;-71
2022/08/15 12:59:02;;;;;;;4.53;2.60;;;27.30;88.10;;;;;;4981967;28;24507;-72
2022/08/15 13:01:28;;;;;;;4.90;2.55;;;27.20;88.20;;;;;;4983861;28;20045;-72
2022/08/15 13:03:54;;;;;;;9.40;4.40;;;27.10;88.20;;;;;;4981336;28;20048;-71
2022/08/15 13:06:28;;;;;;;4.82;2.67;;;27.00;87.80;;;;;;4981520;28;20038;-72
2022/08/15 13:08:54;;;;;;;9.50;3.28;;;26.80;88.80;;;;;;4976914;28;20058;-71
2022/08/15 13:11:21;;;;;;;7.13;3.50;;;26.60;89.60;;;;;;4983188;28;20038;-72
2022/08/15 13:13:49;;;;;;;5.35;3.10;;;26.50;90.20;;;;;;4982275;28;20872;-71
2022/08/15 13:16:16;;;;;;;9.80;3.22;;;26.40;90.50;;;;;;4980988;28;20113;-71
2022/08/15 13:18:41;;;;;;;9.88;4.10;;;26.30;90.60;;;;;;4980381;28;20037;-71
2022/08/15 13:23:52;;;;;;;6.05;3.72;;;26.40;90.40;;;;;;4980340;28;20135;-71
2022/08/15 13:26:21;;;;;;;17.33;3.72;;;26.30;90.70;;;;;;4980969;28;20030;-71